Time;durP1;ratioP1;P1;durP2;ratioP2;P2;SDS_P1;SDS_P2;PMS_P1;PMS_P2;Temp;Humidity;BMP_temperature;BMP_pressure;BME280_temperature;BME280_humidity;BME280_pressure;Samples;Min_cycle;Max_cycle;Signal;HPM_P1;HPM_P2
2021/07/02 00:00:10;;;;;;;15.07;9.63;;;14.70;99.90;;;;;;5037026;28;20033;-67
2021/07/02 00:02:42;;;;;;;13.20;9.18;;;14.70;99.90;;;;;;5032300;28;20029;-67
2021/07/02 00:05:09;;;;;;;12.38;8.68;;;14.70;99.90;;;;;;5036065;28;20039;-67
2021/07/02 00:07:34;;;;;;;13.90;8.60;;;14.70;99.90;;;;;;5037680;28;20043;-72
2021/07/02 00:10:00;;;;;;;17.70;9.90;;;14.60;99.90;;;;;;5042559;28;20116;-73
2021/07/02 00:12:28;;;;;;;14.98;9.27;;;14.70;99.90;;;;;;5037749;28;20098;-73
2021/07/02 00:14:56;;;;;;;14.48;9.73;;;14.70;99.90;;;;;;5032100;28;20045;-71
2021/07/02 00:17:24;;;;;;;14.88;9.70;;;14.70;99.90;;;;;;5041304;28;20101;-71
2021/07/02 00:19:49;;;;;;;14.32;9.07;;;14.70;99.90;;;;;;5041027;28;20037;-71
2021/07/02 00:22:15;;;;;;;13.02;9.38;;;14.70;99.90;;;;;;5036990;28;20033;-71
2021/07/02 00:24:43;;;;;;;15.75;10.60;;;14.70;99.90;;;;;;5038103;28;20095;-70
2021/07/02 00:27:08;;;;;;;15.30;10.30;;;14.70;99.90;;;;;;5040470;28;20025;-71
2021/07/02 00:29:34;;;;;;;15.57;10.75;;;14.70;99.90;;;;;;5042243;28;20048;-70
2021/07/02 00:32:00;;;;;;;21.35;11.52;;;14.70;99.90;;;;;;5039613;28;20029;-70
2021/07/02 00:34:28;;;;;;;14.77;10.02;;;14.70;99.90;;;;;;5041777;28;20043;-71
2021/07/02 00:36:55;;;;;;;18.02;12.00;;;14.70;99.90;;;;;;5047383;28;20092;-72
2021/07/02 00:39:21;;;;;;;16.80;11.15;;;14.60;99.90;;;;;;5045083;28;20090;-71
2021/07/02 00:41:49;;;;;;;18.73;12.77;;;14.60;99.90;;;;;;5040086;28;20041;-73
2021/07/02 00:44:17;;;;;;;20.23;11.95;;;14.60;99.90;;;;;;5036737;28;20068;-73
2021/07/02 00:46:42;;;;;;;15.05;10.68;;;14.60;99.90;;;;;;5041184;28;20037;-72
2021/07/02 00:49:10;;;;;;;22.50;11.55;;;14.60;99.90;;;;;;5039355;28;20021;-71
2021/07/02 00:51:41;;;;;;;15.82;11.98;;;14.50;99.90;;;;;;5040632;28;20033;-71
2021/07/02 00:54:09;;;;;;;15.85;11.65;;;14.50;99.90;;;;;;5039084;28;20108;-71
2021/07/02 00:56:34;;;;;;;14.73;10.45;;;14.50;99.90;;;;;;5023297;28;20039;-72
2021/07/02 00:59:02;;;;;;;16.02;10.63;;;14.50;99.90;;;;;;5026094;28;20029;-72
2021/07/02 01:01:28;;;;;;;17.52;11.60;;;14.60;99.90;;;;;;5035595;28;20037;-71
2021/07/02 01:03:53;;;;;;;17.05;11.23;;;14.60;99.90;;;;;;5035269;28;20033;-71
2021/07/02 01:06:19;;;;;;;21.77;12.55;;;14.60;99.90;;;;;;5039997;28;20525;-71
2021/07/02 01:08:44;;;;;;;17.17;12.32;;;14.50;99.90;;;;;;5043049;28;20040;-71
2021/07/02 01:11:10;;;;;;;14.93;10.27;;;14.50;99.90;;;;;;5042838;28;20029;-70
2021/07/02 01:13:36;;;;;;;18.65;11.68;;;14.50;99.90;;;;;;5025976;28;20037;-70
2021/07/02 01:16:02;;;;;;;21.35;11.57;;;14.50;99.90;;;;;;5044909;28;20049;-71
2021/07/02 01:18:27;;;;;;;17.85;11.50;;;14.50;99.90;;;;;;5044421;28;20037;-70
2021/07/02 01:20:53;;;;;;;19.65;11.80;;;14.50;99.90;;;;;;5026500;28;20025;-70
2021/07/02 01:23:19;;;;;;;17.00;10.93;;;14.50;99.90;;;;;;5040823;28;20103;-72
2021/07/02 01:25:48;;;;;;;24.08;11.95;;;14.50;99.90;;;;;;5034832;28;20049;-70
2021/07/02 01:28:14;;;;;;;14.20;10.45;;;14.50;99.90;;;;;;5037409;28;20029;-71
2021/07/02 01:30:40;;;;;;;15.27;10.98;;;14.50;99.90;;;;;;5040166;28;20032;-71
2021/07/02 01:33:11;;;;;;;19.75;10.63;;;14.50;99.90;;;;;;5040066;28;20397;-71
2021/07/02 01:35:44;;;;;;;16.70;10.75;;;14.50;99.90;;;;;;5039830;28;20037;-71
2021/07/02 01:38:09;;;;;;;16.33;11.07;;;14.50;99.90;;;;;;5037890;28;20025;-71
2021/07/02 01:40:35;;;;;;;15.77;11.60;;;14.50;99.90;;;;;;5043328;28;20500;-71
2021/07/02 01:43:01;;;;;;;19.02;11.02;;;14.50;99.90;;;;;;5041277;28;20017;-70
2021/07/02 01:45:27;;;;;;;18.88;11.68;;;14.40;99.90;;;;;;5025150;28;20044;-71
2021/07/02 01:47:53;;;;;;;14.10;10.38;;;14.40;99.90;;;;;;5036490;28;20029;-71
2021/07/02 01:50:19;;;;;;;14.80;10.55;;;14.50;99.90;;;;;;5034698;28;20037;-71
2021/07/02 01:52:44;;;;;;;16.98;10.60;;;14.50;99.90;;;;;;5034173;28;20034;-70
2021/07/02 01:55:10;;;;;;;15.23;11.13;;;14.50;99.90;;;;;;5057258;28;20024;-71
2021/07/02 01:57:36;;;;;;;17.65;11.32;;;14.50;99.90;;;;;;5038440;28;20041;-71
2021/07/02 02:00:02;;;;;;;18.05;10.23;;;14.50;99.90;;;;;;5039841;28;20115;-71
2021/07/02 02:02:29;;;;;;;17.60;11.38;;;14.50;99.90;;;;;;5036414;28;20852;-71
2021/07/02 02:04:55;;;;;;;14.40;9.52;;;14.50;99.90;;;;;;5040257;28;20048;-71
2021/07/02 02:07:23;;;;;;;14.05;10.05;;;14.50;99.90;;;;;;5038687;28;20533;-72
2021/07/02 02:09:48;;;;;;;16.23;10.63;;;14.50;99.90;;;;;;5039407;28;20033;-71
2021/07/02 02:12:14;;;;;;;18.00;11.50;;;14.50;99.90;;;;;;5038404;28;20044;-71
2021/07/02 02:14:40;;;;;;;14.93;10.80;;;14.50;99.90;;;;;;5038991;28;20367;-71
2021/07/02 02:17:08;;;;;;;13.23;9.48;;;14.50;99.90;;;;;;5034656;28;20428;-71
2021/07/02 02:19:33;;;;;;;15.80;10.73;;;14.50;99.90;;;;;;5039413;28;20392;-71
2021/07/02 02:21:59;;;;;;;15.73;10.25;;;14.40;99.90;;;;;;5021684;28;20024;-71
2021/07/02 02:24:25;;;;;;;12.32;9.57;;;14.40;99.90;;;;;;5054868;28;20386;-71
2021/07/02 02:26:50;;;;;;;17.33;10.45;;;14.40;99.90;;;;;;5039853;28;20507;-71
2021/07/02 02:29:16;;;;;;;18.02;10.02;;;14.50;99.90;;;;;;5045004;28;20420;-71
2021/07/02 02:31:44;;;;;;;17.83;10.80;;;14.50;99.90;;;;;;5043352;28;20086;-71
2021/07/02 02:34:09;;;;;;;13.93;10.10;;;14.50;99.90;;;;;;5041442;28;20171;-71
2021/07/02 02:36:35;;;;;;;16.02;11.55;;;14.50;99.90;;;;;;5042765;28;20406;-70
2021/07/02 02:39:01;;;;;;;16.67;11.43;;;14.40;99.90;;;;;;5038094;28;20029;-71
2021/07/02 02:41:26;;;;;;;15.85;11.85;;;14.40;99.90;;;;;;5038160;28;20545;-71
2021/07/02 02:43:52;;;;;;;18.20;10.70;;;14.40;99.90;;;;;;5038137;28;20083;-71
2021/07/02 02:46:20;;;;;;;16.30;10.52;;;14.40;99.90;;;;;;5037391;28;20044;-70
2021/07/02 02:48:46;;;;;;;14.90;9.98;;;14.40;99.90;;;;;;5037624;28;20028;-70
2021/07/02 02:51:11;;;;;;;19.60;12.70;;;14.40;99.90;;;;;;5038262;28;20029;-71
2021/07/02 02:53:37;;;;;;;13.80;9.98;;;14.40;99.90;;;;;;5042820;28;20632;-70
2021/07/02 02:56:03;;;;;;;14.75;9.85;;;14.40;99.90;;;;;;5043650;28;20034;-70
2021/07/02 02:58:28;;;;;;;15.23;10.70;;;14.40;99.90;;;;;;5040792;28;20067;-70
2021/07/02 03:00:54;;;;;;;13.38;10.10;;;14.40;99.90;;;;;;5038269;28;20428;-70
2021/07/02 03:03:20;;;;;;;15.63;11.70;;;14.40;99.90;;;;;;5040925;28;20043;-70
2021/07/02 03:05:47;;;;;;;13.48;9.57;;;14.40;99.90;;;;;;5032894;28;20454;-71
2021/07/02 03:08:13;;;;;;;13.85;10.23;;;14.50;99.90;;;;;;5061621;28;20162;-70
2021/07/02 03:10:40;;;;;;;18.10;11.32;;;14.50;99.90;;;;;;5043189;28;20415;-70
2021/07/02 03:13:09;;;;;;;17.63;11.90;;;14.50;99.90;;;;;;5033611;28;20120;-71
2021/07/02 03:15:34;;;;;;;18.60;12.40;;;14.40;99.90;;;;;;5024164;28;20029;-70
2021/07/02 03:18:05;;;;;;;15.60;10.57;;;14.40;99.90;;;;;;5037299;28;20051;-71
2021/07/02 03:20:30;;;;;;;16.10;10.82;;;14.40;99.90;;;;;;5037177;28;20356;-71
2021/07/02 03:22:56;;;;;;;21.02;10.15;;;14.40;99.90;;;;;;5040190;28;20033;-70
2021/07/02 03:25:24;;;;;;;13.70;9.85;;;14.40;99.90;;;;;;5039703;28;20044;-71
2021/07/02 03:27:52;;;;;;;17.45;10.48;;;14.40;99.90;;;;;;5037788;28;20362;-70
2021/07/02 03:30:18;;;;;;;16.35;10.90;;;14.40;99.90;;;;;;5035982;28;20032;-70
2021/07/02 03:32:43;;;;;;;18.15;11.07;;;14.40;99.90;;;;;;5023021;28;20021;-70
2021/07/02 03:35:09;;;;;;;18.02;11.55;;;14.40;99.90;;;;;;5037738;28;20126;-70
2021/07/02 03:37:35;;;;;;;13.45;10.50;;;14.40;99.90;;;;;;5037928;28;20025;-70
2021/07/02 03:40:02;;;;;;;15.30;10.35;;;14.40;99.90;;;;;;5022546;28;20098;-70
2021/07/02 03:42:29;;;;;;;15.57;10.93;;;14.40;99.90;;;;;;5036932;28;20029;-70
2021/07/02 03:44:55;;;;;;;16.58;11.32;;;14.40;99.90;;;;;;5037623;28;20048;-70
2021/07/02 03:47:23;;;;;;;22.83;11.70;;;14.40;99.90;;;;;;5036268;28;20112;-70
2021/07/02 03:49:48;;;;;;;18.85;11.85;;;14.40;99.90;;;;;;5036548;28;20040;-70
2021/07/02 03:52:14;;;;;;;18.52;11.68;;;14.30;99.90;;;;;;5038611;28;20106;-70
2021/07/02 03:54:39;;;;;;;19.70;11.50;;;14.30;99.90;;;;;;5029101;28;20124;-70
2021/07/02 03:57:11;;;;;;;16.15;10.77;;;14.30;99.90;;;;;;5040772;28;20033;-70
2021/07/02 03:59:38;;;;;;;16.55;10.90;;;14.30;99.90;;;;;;5036319;28;20024;-70
2021/07/02 04:02:07;;;;;;;13.80;10.60;;;14.40;99.90;;;;;;5041422;28;20119;-70
2021/07/02 04:04:38;;;;;;;16.30;10.25;;;14.40;99.90;;;;;;5042876;28;20431;-70
2021/07/02 04:07:04;;;;;;;14.20;10.07;;;14.40;99.90;;;;;;5036315;28;20494;-70
2021/07/02 04:09:30;;;;;;;22.95;9.95;;;14.40;99.90;;;;;;5016501;28;20116;-70
2021/07/02 04:11:55;;;;;;;18.30;10.95;;;14.40;99.90;;;;;;5037005;28;20082;-71
2021/07/02 04:14:21;;;;;;;16.52;10.77;;;14.40;99.90;;;;;;5037126;28;20478;-70
2021/07/02 04:16:47;;;;;;;21.40;10.30;;;14.40;99.90;;;;;;5037774;28;20100;-70
2021/07/02 04:19:17;;;;;;;17.13;10.25;;;14.40;99.90;;;;;;5035837;28;20040;-70
2021/07/02 04:21:43;;;;;;;17.92;11.50;;;14.40;99.90;;;;;;5037807;28;20033;-70
2021/07/02 04:24:08;;;;;;;15.15;10.25;;;14.40;99.90;;;;;;5041823;28;20102;-70
2021/07/02 04:26:37;;;;;;;15.93;9.60;;;14.40;99.90;;;;;;5041102;28;20131;-70
2021/07/02 04:29:02;;;;;;;14.77;10.25;;;14.40;99.90;;;;;;5036073;28;20033;-70
2021/07/02 04:31:30;;;;;;;14.40;10.13;;;14.40;99.90;;;;;;5015959;28;20036;-70
2021/07/02 04:34:01;;;;;;;16.27;10.70;;;14.40;99.90;;;;;;5036536;28;20032;-70
2021/07/02 04:36:29;;;;;;;14.38;9.93;;;14.40;99.90;;;;;;5036562;28;20378;-73
2021/07/02 04:38:56;;;;;;;14.82;10.25;;;14.40;99.90;;;;;;5035634;28;20067;-72
2021/07/02 04:41:22;;;;;;;15.15;10.43;;;14.40;99.90;;;;;;5036057;28;20029;-71
2021/07/02 04:43:50;;;;;;;15.10;9.63;;;14.40;99.90;;;;;;5035907;28;20574;-70
2021/07/02 04:46:18;;;;;;;17.00;10.73;;;14.40;99.90;;;;;;5032903;28;20033;-72
2021/07/02 04:48:49;;;;;;;15.70;9.85;;;14.30;99.90;;;;;;5037390;28;20021;-72
2021/07/02 04:51:14;;;;;;;15.90;10.88;;;14.40;99.90;;;;;;5039018;28;20029;-72
2021/07/02 04:53:40;;;;;;;16.80;10.23;;;14.30;99.90;;;;;;5043883;28;20496;-72
2021/07/02 04:56:06;;;;;;;13.93;9.30;;;14.40;99.90;;;;;;5039057;28;20035;-70
2021/07/02 04:58:32;;;;;;;15.93;10.15;;;14.40;99.90;;;;;;5019952;28;20043;-70
2021/07/02 05:00:57;;;;;;;16.58;10.40;;;14.40;99.90;;;;;;5035064;28;20034;-70
2021/07/02 05:03:23;;;;;;;17.20;10.55;;;14.30;99.90;;;;;;5031899;28;20028;-70
2021/07/02 05:05:49;;;;;;;14.98;10.35;;;14.30;99.90;;;;;;5022040;28;20030;-70
2021/07/02 05:08:17;;;;;;;17.77;10.00;;;14.20;99.90;;;;;;5034370;28;20053;-70
2021/07/02 05:10:43;;;;;;;16.98;9.60;;;14.20;99.90;;;;;;5038583;28;20021;-70
2021/07/02 05:13:11;;;;;;;17.20;10.48;;;14.20;99.90;;;;;;5036903;28;20036;-70
2021/07/02 05:15:37;;;;;;;13.48;9.52;;;14.20;99.90;;;;;;5015855;28;20515;-70
2021/07/02 05:18:05;;;;;;;14.75;9.55;;;14.20;99.90;;;;;;5042944;28;20158;-70
2021/07/02 05:20:35;;;;;;;17.35;10.85;;;14.20;99.90;;;;;;5036944;28;20025;-67
2021/07/02 05:23:01;;;;;;;15.35;10.18;;;14.20;99.90;;;;;;5045518;28;20089;-67
2021/07/02 05:25:29;;;;;;;14.27;9.77;;;14.20;99.90;;;;;;5046151;28;20128;-70
2021/07/02 05:27:54;;;;;;;15.55;10.00;;;14.20;99.90;;;;;;5038547;28;20021;-70
2021/07/02 05:30:20;;;;;;;13.38;9.65;;;14.30;99.90;;;;;;5041452;28;20031;-70
2021/07/02 05:32:46;;;;;;;18.52;10.65;;;14.30;99.90;;;;;;5039814;28;20025;-70
2021/07/02 05:35:14;;;;;;;14.40;9.52;;;14.30;99.90;;;;;;5041853;28;20663;-70
2021/07/02 05:37:41;;;;;;;16.27;10.05;;;14.30;99.90;;;;;;5038097;28;20083;-70
2021/07/02 05:40:07;;;;;;;14.93;10.35;;;14.30;99.90;;;;;;5035652;28;20033;-67
2021/07/02 05:42:33;;;;;;;18.70;11.48;;;14.40;99.90;;;;;;5038828;28;20542;-67
2021/07/02 05:44:59;;;;;;;17.27;10.57;;;14.40;99.90;;;;;;5036172;28;20029;-67
2021/07/02 05:47:24;;;;;;;18.33;10.23;;;14.40;99.90;;;;;;5036799;28;20025;-67
2021/07/02 05:49:50;;;;;;;16.20;10.13;;;14.40;99.90;;;;;;5039890;28;20447;-71
2021/07/02 05:52:15;;;;;;;17.27;10.48;;;14.50;99.90;;;;;;5040306;28;20029;-71
2021/07/02 05:54:45;;;;;;;17.40;10.55;;;14.50;99.90;;;;;;5044431;28;20603;-70
2021/07/02 05:57:10;;;;;;;19.27;12.93;;;14.60;99.90;;;;;;5041727;28;20032;-70
2021/07/02 05:59:36;;;;;;;18.70;11.65;;;14.70;99.90;;;;;;5042390;28;20241;-71
2021/07/02 06:02:02;;;;;;;17.15;11.57;;;14.70;99.90;;;;;;5036462;28;20037;-71
2021/07/02 06:04:27;;;;;;;17.33;10.63;;;14.80;99.90;;;;;;5038090;28;20143;-70
2021/07/02 06:06:57;;;;;;;16.85;10.65;;;14.90;99.90;;;;;;5035888;28;20031;-70
2021/07/02 06:09:29;;;;;;;18.92;12.05;;;15.00;99.90;;;;;;5042299;28;20025;-70
2021/07/02 06:11:55;;;;;;;17.85;10.93;;;15.10;99.90;;;;;;5043091;28;20121;-67
2021/07/02 06:14:20;;;;;;;17.52;11.40;;;15.20;99.90;;;;;;5041167;28;20502;-70
2021/07/02 06:16:46;;;;;;;16.13;10.57;;;15.20;99.90;;;;;;5043016;28;20112;-70
2021/07/02 06:19:11;;;;;;;19.02;12.63;;;15.30;99.90;;;;;;5038375;28;20029;-70
2021/07/02 06:21:39;;;;;;;19.38;12.57;;;15.30;99.90;;;;;;5036936;28;20076;-70
2021/07/02 06:24:05;;;;;;;18.73;13.00;;;15.30;99.90;;;;;;5037667;28;20110;-70
2021/07/02 06:26:31;;;;;;;19.15;11.90;;;15.30;99.90;;;;;;5037599;28;20033;-70
2021/07/02 06:28:59;;;;;;;16.17;10.55;;;15.40;99.90;;;;;;5034548;28;20104;-70
2021/07/02 06:31:25;;;;;;;16.80;11.90;;;15.50;99.90;;;;;;5035705;28;20454;-70
2021/07/02 06:33:53;;;;;;;16.88;11.30;;;15.60;99.90;;;;;;5035401;28;20037;-71
2021/07/02 06:36:18;;;;;;;16.10;11.50;;;15.70;99.90;;;;;;5036022;28;20029;-70
2021/07/02 06:38:44;;;;;;;16.55;11.23;;;15.80;99.90;;;;;;5037905;28;20368;-70
2021/07/02 06:41:09;;;;;;;18.17;11.27;;;15.90;99.90;;;;;;5037944;28;20064;-70
2021/07/02 06:43:35;;;;;;;17.65;11.00;;;15.90;99.90;;;;;;5036714;28;20032;-71
2021/07/02 06:46:00;;;;;;;15.50;10.32;;;16.00;99.90;;;;;;5037782;28;20072;-71
2021/07/02 06:48:28;;;;;;;16.02;11.07;;;16.10;99.90;;;;;;5036087;28;20025;-71
2021/07/02 06:50:58;;;;;;;20.27;11.77;;;16.10;99.90;;;;;;5037789;28;20029;-70
2021/07/02 06:53:24;;;;;;;19.80;10.60;;;16.10;99.90;;;;;;5036916;28;20081;-71
2021/07/02 06:55:51;;;;;;;17.95;11.90;;;16.20;99.90;;;;;;5033110;28;20025;-70
2021/07/02 06:58:17;;;;;;;16.60;11.35;;;16.10;99.90;;;;;;5038110;28;20068;-70
2021/07/02 07:00:47;;;;;;;14.90;10.48;;;16.10;99.90;;;;;;5036547;28;20478;-70
2021/07/02 07:03:13;;;;;;;17.05;11.10;;;16.10;99.90;;;;;;5037513;28;20039;-70
2021/07/02 07:05:39;;;;;;;15.45;10.65;;;16.20;99.90;;;;;;5033792;28;20039;-70
2021/07/02 07:08:07;;;;;;;14.55;10.10;;;16.30;99.90;;;;;;5036013;28;20091;-70
2021/07/02 07:10:32;;;;;;;15.52;10.60;;;16.40;99.90;;;;;;5035981;28;20067;-70
2021/07/02 07:13:01;;;;;;;15.40;10.75;;;16.40;99.90;;;;;;5033365;28;20025;-70
2021/07/02 07:15:29;;;;;;;14.98;10.30;;;16.40;99.90;;;;;;5036073;28;20037;-70
2021/07/02 07:17:59;;;;;;;16.13;10.60;;;16.40;99.90;;;;;;5037180;28;20043;-71
2021/07/02 07:20:29;;;;;;;14.40;9.95;;;16.50;99.90;;;;;;5036941;28;20119;-71
2021/07/02 07:22:54;;;;;;;15.38;9.80;;;16.50;99.90;;;;;;5037632;28;20120;-70
2021/07/02 07:25:22;;;;;;;14.63;9.55;;;16.50;99.90;;;;;;5032574;28;20098;-71
2021/07/02 07:27:48;;;;;;;12.55;9.20;;;16.60;99.90;;;;;;5036969;28;20037;-71
2021/07/02 07:30:14;;;;;;;13.55;9.35;;;16.70;99.90;;;;;;5039165;28;20023;-71
2021/07/02 07:32:42;;;;;;;15.07;9.32;;;16.70;99.90;;;;;;5041332;28;20029;-71
2021/07/02 07:35:19;;;;;;;19.35;9.88;;;16.80;99.90;;;;;;5019405;28;20040;-70
2021/07/02 07:37:51;;;;;;;13.75;10.13;;;16.90;99.90;;;;;;5036139;28;20048;-71
2021/07/02 07:40:16;;;;;;;14.02;10.18;;;16.90;99.90;;;;;;5036361;28;20029;-72
2021/07/02 07:42:47;;;;;;;12.07;9.05;;;16.90;99.90;;;;;;5035621;28;20513;-72
2021/07/02 07:45:12;;;;;;;11.02;8.77;;;17.10;99.90;;;;;;5036009;28;20033;-72
2021/07/02 07:47:38;;;;;;;12.18;9.07;;;17.40;99.90;;;;;;5023814;28;20040;-72
2021/07/02 07:50:12;;;;;;;11.73;8.77;;;17.70;99.90;;;;;;5037965;28;20104;-73
2021/07/02 07:55:04;;;;;;;11.35;7.82;;;18.10;99.90;;;;;;5038796;28;20037;-71
2021/07/02 07:57:29;;;;;;;11.30;7.80;;;18.50;99.90;;;;;;5035774;28;20737;-70
2021/07/02 08:00:00;;;;;;;11.57;8.10;;;18.70;99.90;;;;;;5035330;28;20045;-71
2021/07/02 08:02:25;;;;;;;10.45;8.20;;;18.70;99.90;;;;;;5035254;28;20037;-71
2021/07/02 08:04:56;;;;;;;10.25;7.50;;;18.50;99.90;;;;;;5035419;28;20602;-70
2021/07/02 08:07:21;;;;;;;11.75;7.90;;;18.30;99.90;;;;;;5036296;28;20047;-71
2021/07/02 08:09:47;;;;;;;12.65;8.10;;;18.40;99.90;;;;;;5038146;28;20336;-67
2021/07/02 08:12:15;;;;;;;12.73;8.00;;;18.60;99.90;;;;;;5041458;28;20037;-68
2021/07/02 08:14:46;;;;;;;10.60;7.60;;;18.80;99.90;;;;;;5038209;28;20663;-68
2021/07/02 08:17:11;;;;;;;10.90;7.50;;;19.00;99.10;;;;;;5034937;28;20025;-67
2021/07/02 08:19:39;;;;;;;9.90;7.15;;;19.30;99.90;;;;;;5037520;28;20288;-68
2021/07/02 08:22:07;;;;;;;8.93;7.22;;;19.40;99.90;;;;;;5035671;28;20102;-68
2021/07/02 08:24:33;;;;;;;11.63;7.75;;;19.70;99.90;;;;;;5032134;28;20094;-70
2021/07/02 08:27:05;;;;;;;12.38;8.35;;;19.70;99.90;;;;;;5035966;28;20041;-67
2021/07/02 08:29:35;;;;;;;11.45;7.78;;;19.60;99.90;;;;;;5035686;28;20037;-68
2021/07/02 08:32:03;;;;;;;10.70;7.38;;;19.60;94.10;;;;;;5035650;28;20053;-69
2021/07/02 08:34:29;;;;;;;12.43;7.10;;;19.40;94.80;;;;;;5035252;28;20114;-68
2021/07/02 08:36:54;;;;;;;10.90;7.40;;;19.60;98.80;;;;;;5034751;28;20459;-68
2021/07/02 08:39:20;;;;;;;11.15;7.82;;;19.60;94.60;;;;;;5036481;28;20045;-68
2021/07/02 08:41:48;;;;;;;10.10;7.78;;;19.60;92.80;;;;;;5030797;28;20029;-68
2021/07/02 08:44:16;;;;;;;11.30;7.72;;;19.70;93.50;;;;;;5037372;28;20524;-67
2021/07/02 08:46:44;;;;;;;9.82;7.43;;;19.80;91.40;;;;;;5040073;28;20613;-68
2021/07/02 08:49:10;;;;;;;11.15;7.30;;;19.90;97.80;;;;;;5037225;28;20028;-68
2021/07/02 08:51:35;;;;;;;10.70;7.97;;;20.00;98.10;;;;;;5030598;28;20459;-68
2021/07/02 08:54:03;;;;;;;10.43;7.65;;;19.80;86.20;;;;;;5035302;28;20126;-67
2021/07/02 08:56:29;;;;;;;10.38;8.10;;;19.80;82.00;;;;;;5038014;28;20040;-68
2021/07/02 08:58:57;;;;;;;10.60;7.28;;;19.80;91.50;;;;;;5020149;28;20032;-68
2021/07/02 09:01:43;;;;;;;10.45;7.78;;;19.60;91.30;;;;;;5037301;28;20040;-68
2021/07/02 09:04:29;;;;;;;11.00;7.75;;;19.70;94.40;;;;;;5056642;28;20128;-68
2021/07/02 09:07:08;;;;;;;10.52;7.50;;;19.50;79.80;;;;;;5043974;28;20044;-71
2021/07/02 09:09:56;;;;;;;10.07;6.97;;;19.50;94.50;;;;;;5043516;28;20048;-71
2021/07/02 09:12:25;;;;;;;11.75;7.40;;;19.70;93.40;;;;;;5042262;28;20126;-67
2021/07/02 09:15:13;;;;;;;12.85;8.15;;;19.50;86.50;;;;;;5039067;28;20048;-67
2021/07/02 09:18:00;;;;;;;10.30;7.32;;;19.80;94.90;;;;;;5041593;28;20037;-68
2021/07/02 09:20:32;;;;;;;11.85;7.47;;;19.80;84.50;;;;;;5042295;28;20033;-67
2021/07/02 09:23:09;;;;;;;9.73;7.07;;;19.90;91.30;;;;;;5039622;28;20025;-68
2021/07/02 09:25:39;;;;;;;10.70;6.85;;;19.90;90.80;;;;;;5021057;28;20045;-67
2021/07/02 09:28:06;;;;;;;9.88;6.60;;;20.00;94.90;;;;;;5044380;28;20021;-68
2021/07/02 09:30:33;;;;;;;12.02;7.47;;;20.00;90.80;;;;;;5039881;28;20128;-67
2021/07/02 09:33:05;;;;;;;11.45;7.45;;;20.00;92.40;;;;;;5044803;28;20362;-68
2021/07/02 09:35:39;;;;;;;11.18;7.10;;;20.00;95.20;;;;;;5020859;28;20049;-68
2021/07/02 09:38:05;;;;;;;11.13;6.95;;;19.90;86.30;;;;;;5039313;28;20462;-67
2021/07/02 09:40:32;;;;;;;10.00;7.03;;;20.00;91.00;;;;;;5036147;28;20183;-67
2021/07/02 09:43:05;;;;;;;10.23;6.95;;;19.80;92.00;;;;;;5004191;28;20587;-67
2021/07/02 09:45:32;;;;;;;9.95;6.68;;;19.80;90.00;;;;;;5038617;28;20095;-67
2021/07/02 09:48:06;;;;;;;10.07;6.72;;;19.80;95.00;;;;;;5021382;28;20040;-68
2021/07/02 09:50:34;;;;;;;9.55;6.75;;;19.80;93.20;;;;;;5038513;28;20033;-68
2021/07/02 09:53:01;;;;;;;12.27;7.20;;;19.90;95.40;;;;;;5035435;28;20052;-67
2021/07/02 09:55:32;;;;;;;9.10;6.63;;;19.60;84.20;;;;;;5041942;28;20018;-67
2021/07/02 09:58:10;;;;;;;10.15;6.63;;;19.70;91.20;;;;;;5040880;28;20032;-68
2021/07/02 10:00:47;;;;;;;8.40;6.40;;;19.80;79.80;;;;;;5033278;28;20248;-68
2021/07/02 10:03:16;;;;;;;8.68;6.20;;;20.00;92.10;;;;;;5044631;28;20029;-68
2021/07/02 10:05:49;;;;;;;9.38;6.50;;;20.00;91.70;;;;;;5024803;28;20056;-68
2021/07/02 10:08:18;;;;;;;8.75;6.22;;;19.90;85.30;;;;;;5034388;28;20016;-68
2021/07/02 10:10:44;;;;;;;9.40;6.43;;;19.70;80.10;;;;;;5025975;28;20094;-68
2021/07/02 10:13:12;;;;;;;9.18;6.30;;;19.80;78.00;;;;;;5038194;28;20025;-68
2021/07/02 10:15:38;;;;;;;8.70;6.65;;;19.80;80.30;;;;;;5034027;28;20104;-67
2021/07/02 10:18:04;;;;;;;10.25;6.63;;;19.70;80.50;;;;;;5043555;28;20169;-67
2021/07/02 10:20:33;;;;;;;11.90;7.10;;;19.80;84.40;;;;;;5039483;28;21969;-68
2021/07/02 10:23:01;;;;;;;10.45;6.45;;;20.00;90.40;;;;;;5034463;28;20040;-68
2021/07/02 10:25:31;;;;;;;9.52;7.13;;;20.00;79.40;;;;;;5033613;28;20500;-67
2021/07/02 10:27:59;;;;;;;10.35;6.95;;;20.00;84.20;;;;;;5035488;28;20754;-67
2021/07/02 10:30:25;;;;;;;9.43;6.57;;;20.10;83.90;;;;;;5039966;28;20391;-68
2021/07/02 10:32:57;;;;;;;9.48;6.45;;;20.10;80.40;;;;;;5023367;28;20124;-68
2021/07/02 10:35:23;;;;;;;9.45;6.75;;;20.20;82.10;;;;;;5030193;28;20104;-67
2021/07/02 10:37:55;;;;;;;8.38;6.93;;;20.10;77.20;;;;;;5035851;28;20523;-67
2021/07/02 10:40:43;;;;;;;9.93;6.72;;;20.10;86.10;;;;;;5036441;28;20021;-68
2021/07/02 10:43:19;;;;;;;8.77;6.70;;;20.10;83.60;;;;;;5035979;28;20071;-68
2021/07/02 10:46:15;;;;;;;9.57;6.95;;;20.10;88.50;;;;;;5020396;28;20035;-67
2021/07/02 10:48:50;;;;;;;8.90;6.72;;;20.10;86.90;;;;;;5042834;28;20505;-68
2021/07/02 10:51:30;;;;;;;9.27;6.22;;;19.70;73.20;;;;;;5041435;28;20033;-68
2021/07/02 10:54:18;;;;;;;8.85;6.80;;;19.60;83.90;;;;;;5040771;28;20033;-68
2021/07/02 10:56:52;;;;;;;9.52;6.63;;;19.70;85.10;;;;;;5043819;28;20458;-68
2021/07/02 10:59:23;;;;;;;9.50;6.72;;;19.60;93.70;;;;;;5042852;28;20044;-67
2021/07/02 11:02:10;;;;;;;8.35;6.70;;;19.80;84.00;;;;;;5040963;28;20080;-68
2021/07/02 11:04:43;;;;;;;8.43;6.30;;;20.00;91.90;;;;;;5046988;28;20021;-68
2021/07/02 11:07:08;;;;;;;8.50;6.38;;;20.10;87.30;;;;;;5041039;28;20446;-68
2021/07/02 11:12:40;;;;;;;8.70;6.87;;;19.90;77.30;;;;;;5040355;28;20021;-67
2021/07/02 11:15:12;;;;;;;8.63;6.47;;;20.10;81.40;;;;;;5042177;28;20059;-68
2021/07/02 11:17:38;;;;;;;10.45;6.70;;;20.40;79.10;;;;;;5039140;28;20035;-68
2021/07/02 11:20:07;;;;;;;8.45;6.25;;;20.70;90.20;;;;;;5041030;28;20037;-67
2021/07/02 11:22:35;;;;;;;10.95;7.20;;;20.60;80.00;;;;;;5046560;28;20025;-67
2021/07/02 11:25:23;;;;;;;9.52;7.40;;;20.70;84.00;;;;;;5040905;28;20045;-67
2021/07/02 11:27:55;;;;;;;9.20;6.22;;;20.70;75.80;;;;;;5041084;28;20039;-67
2021/07/02 11:30:38;;;;;;;8.10;6.40;;;20.80;82.50;;;;;;5040758;28;20086;-67
2021/07/02 11:33:17;;;;;;;9.55;6.60;;;21.10;77.40;;;;;;5037322;28;20037;-67
2021/07/02 11:35:53;;;;;;;10.13;6.88;;;21.30;74.50;;;;;;5031380;28;20021;-67
2021/07/02 11:38:25;;;;;;;8.18;6.75;;;21.40;77.40;;;;;;5035310;28;20521;-67
2021/07/02 11:41:08;;;;;;;8.68;6.63;;;21.70;79.00;;;;;;5006415;28;20041;-67
2021/07/02 11:43:34;;;;;;;8.68;6.05;;;21.90;72.50;;;;;;5035322;28;20048;-67
2021/07/02 11:46:01;;;;;;;10.27;6.35;;;22.00;78.90;;;;;;5036229;28;20116;-68
2021/07/02 11:48:46;;;;;;;9.07;6.90;;;22.10;75.20;;;;;;5035408;28;20080;-68
2021/07/02 11:51:13;;;;;;;7.55;6.15;;;22.00;72.00;;;;;;5034806;28;20120;-68
2021/07/02 11:53:49;;;;;;;8.00;6.57;;;21.90;76.00;;;;;;5039013;28;20043;-68
2021/07/02 11:56:31;;;;;;;8.88;7.00;;;21.90;83.60;;;;;;5037584;28;20041;-67
2021/07/02 11:59:00;;;;;;;8.43;6.45;;;21.60;76.50;;;;;;5041298;28;20588;-68
2021/07/02 12:01:37;;;;;;;8.32;6.60;;;21.60;84.20;;;;;;5037844;28;20033;-68
2021/07/02 12:04:12;;;;;;;8.88;6.70;;;21.60;78.40;;;;;;5038955;28;20802;-68
2021/07/02 12:06:52;;;;;;;9.25;6.97;;;21.90;79.00;;;;;;5034696;28;20025;-68
2021/07/02 12:09:19;;;;;;;10.32;6.90;;;21.90;74.20;;;;;;5039743;28;20104;-68
2021/07/02 12:11:50;;;;;;;8.73;6.85;;;22.00;80.00;;;;;;5037376;28;20021;-68
2021/07/02 12:14:29;;;;;;;8.05;6.63;;;22.00;77.90;;;;;;5039729;28;20112;-68
2021/07/02 12:16:56;;;;;;;8.52;6.88;;;21.90;75.40;;;;;;5037611;28;20053;-68
2021/07/02 12:19:28;;;;;;;8.98;6.72;;;21.70;74.70;;;;;;5040056;28;20029;-68
2021/07/02 12:22:11;;;;;;;8.20;6.78;;;21.70;72.70;;;;;;5024798;28;20162;-68
2021/07/02 12:24:47;;;;;;;9.20;7.50;;;21.70;72.20;;;;;;5039086;28;20085;-68
2021/07/02 12:27:15;;;;;;;10.90;6.65;;;21.60;73.70;;;;;;5039700;28;20568;-68
2021/07/02 12:29:42;;;;;;;10.07;7.20;;;21.50;75.50;;;;;;5037369;28;20033;-76
2021/07/02 12:32:14;;;;;;;9.02;7.32;;;21.80;75.70;;;;;;5027348;28;20033;-70
2021/07/02 12:34:47;;;;;;;9.77;7.70;;;22.00;79.00;;;;;;5020805;28;20026;-70
2021/07/02 12:37:14;;;;;;;9.50;6.85;;;22.20;83.70;;;;;;5040087;28;20025;-68
2021/07/02 12:39:57;;;;;;;10.48;7.85;;;22.50;85.10;;;;;;4688785;28;10000115;-68
2021/07/02 12:42:31;;;;;;;10.15;6.90;;;22.40;69.60;;;;;;5037162;28;20041;-68
2021/07/02 12:44:58;;;;;;;7.55;6.50;;;22.30;73.90;;;;;;5035290;28;20517;-67